MDSD/SDQ METAR and TAF weather

Enter ICAO airport designator
Station Type Date Time Source
MDSD METAR 2022/12/04 11:00 UTC NOAA

MDSD 041100Z 35006KT 9999 SCT018 21/20 Q1013


Station Type Date Time Source
MDSD Decoded METAR 2022/12/04 11:00 UTC NOAA

Las Americas, Dominican Republic (MDSD) 18-26N 069-40W
Dec 04, 2022 - 06:00 AM EST / 2022.12.04 1100 UTC
Wind: from the N (350 degrees) at 7 MPH (6 KT):0
Visibility: greater than 7 mile(s):0
Sky conditions: partly cloudy
Temperature: 69 F (21 C)
Dew Point: 68 F (20 C)
Relative Humidity: 94%
Pressure (altimeter): 29.91 in. Hg (1013 hPa)
ob: MDSD 041100Z 35006KT 9999 SCT018 21/20 Q1013
cycle: 11

Station Type Date Time Source
MDSD TAF 2022/12/04 12:03 UTC NOAA

TAF MDSD 041000Z 0412/0512 04008KT 9999 SCT020 PROB30 0420/0500 8000 -RA BKN014

Example: see airport list